createdAt,value
2018-06-09T00:01:09.537Z,70.03
2018-06-09T00:03:39.368Z,69.43
2018-06-09T00:06:09.178Z,66.90
2018-06-09T00:08:38.992Z,67.20
2018-06-09T00:11:08.800Z,68.20
2018-06-09T00:13:39.295Z,66.40
2018-06-09T00:16:09.061Z,67.03
2018-06-09T00:18:38.843Z,66.17
2018-06-09T00:21:08.661Z,67.60
2018-06-09T00:23:38.520Z,72.20
2018-06-09T00:26:08.953Z,71.57
2018-06-09T00:28:38.837Z,71.43
2018-06-09T00:31:08.671Z,68.07
2018-06-09T00:33:38.457Z,67.90
2018-06-09T00:36:08.229Z,66.30
2018-06-09T00:38:38.660Z,71.43
2018-06-09T00:41:08.468Z,65.43
2018-06-09T00:43:39.044Z,62.57
2018-06-09T00:46:08.550Z,63.80
2018-06-09T00:48:38.136Z,64.00
2018-06-09T00:51:08.073Z,63.97
2018-06-09T00:53:37.868Z,62.70
2018-06-09T00:56:19.110Z,62.47
2018-06-09T00:58:48.909Z,57.00
2018-06-09T01:01:18.678Z,56.73
2018-06-09T01:03:48.895Z,52.20
2018-06-09T01:06:18.764Z,52.60
2018-06-09T01:08:49.552Z,52.00
2018-06-09T01:11:19.020Z,49.77
2018-06-09T01:13:48.681Z,45.13
2018-06-09T01:16:18.444Z,46.17
2018-06-09T01:18:48.241Z,43.17
2018-06-09T01:21:18.011Z,45.50
2018-06-09T01:23:47.793Z,44.70
2018-06-09T01:26:17.601Z,45.07
2018-06-09T01:28:47.396Z,39.80
2018-06-09T01:31:17.157Z,36.73
2018-06-09T01:33:47.372Z,37.17
2018-06-09T01:36:17.132Z,36.70
2018-06-09T01:38:46.699Z,33.80
2018-06-09T01:41:16.449Z,34.77
2018-06-09T01:43:46.853Z,29.83
2018-06-09T01:46:16.623Z,32.77
2018-06-09T01:48:46.113Z,31.73
2018-06-09T01:51:15.670Z,31.60
2018-06-09T01:53:45.421Z,33.57
2018-06-09T01:56:15.209Z,31.93
2018-06-09T01:58:45.020Z,31.30
2018-06-09T02:01:14.929Z,33.27
2018-06-09T02:03:44.739Z,31.77
2018-06-09T02:06:14.522Z,30.57
2018-06-09T02:08:44.326Z,31.10
2018-06-09T02:11:14.148Z,31.77
2018-06-09T02:13:43.960Z,32.60
2018-06-09T02:16:13.746Z,32.87
2018-06-09T02:18:43.524Z,30.07
2018-06-09T02:21:13.309Z,28.27
2018-06-09T02:23:43.106Z,30.20
2018-06-09T02:26:12.560Z,28.83
2018-06-09T02:28:42.100Z,28.40
2018-06-09T02:31:11.897Z,27.97
2018-06-09T02:33:41.877Z,27.17
2018-06-09T02:36:11.645Z,28.07
2018-06-09T02:38:41.427Z,28.67
2018-06-09T02:41:11.233Z,28.13
2018-06-09T02:43:41.128Z,28.97
2018-06-09T02:46:11.838Z,28.10
2018-06-09T02:48:41.610Z,29.40
2018-06-09T02:51:11.768Z,27.40
2018-06-09T02:53:41.544Z,27.90
2018-06-09T02:56:11.337Z,27.50
2018-06-09T02:58:41.388Z,27.73
2018-06-09T03:01:11.177Z,24.90
2018-06-09T03:03:40.952Z,27.00
2018-06-09T03:06:12.453Z,26.07
2018-06-09T03:08:42.259Z,24.30
2018-06-09T03:11:12.017Z,23.07
2018-06-09T03:13:42.398Z,22.60
2018-06-09T03:16:15.092Z,23.30
2018-06-09T03:18:45.203Z,22.90
2018-06-09T03:21:15.008Z,22.20
2018-06-09T03:23:44.769Z,21.07
2018-06-09T03:26:14.574Z,23.10
2018-06-09T03:28:44.379Z,23.60
2018-06-09T03:31:14.135Z,22.00
2018-06-09T03:33:43.909Z,22.10
2018-06-09T03:36:13.677Z,22.13
2018-06-09T03:38:44.633Z,21.73
2018-06-09T03:41:14.423Z,21.93
2018-06-09T03:43:44.208Z,21.90
2018-06-09T03:46:13.725Z,21.80
2018-06-09T03:48:43.677Z,21.23
2018-06-09T03:51:13.460Z,21.27
2018-06-09T03:53:43.228Z,20.60
2018-06-09T03:56:13.030Z,20.40
2018-06-09T03:58:42.489Z,21.00
2018-06-09T04:01:12.268Z,19.87
2018-06-09T04:03:42.092Z,20.37
2018-06-09T04:06:11.867Z,19.57
2018-06-09T04:08:41.324Z,19.17
2018-06-09T04:11:11.264Z,19.20
2018-06-09T04:13:41.162Z,18.93
2018-06-09T04:16:10.945Z,19.60
2018-06-09T04:18:42.391Z,20.20
2018-06-09T04:21:12.160Z,18.80
2018-06-09T04:23:41.917Z,17.97
2018-06-09T04:26:11.684Z,18.00
2018-06-09T04:28:41.149Z,18.10
2018-06-09T04:31:10.733Z,17.83
2018-06-09T04:33:40.595Z,18.80
2018-06-09T04:36:10.373Z,18.90
2018-06-09T04:38:40.194Z,18.30
2018-06-09T04:41:09.963Z,18.63
2018-06-09T04:43:39.925Z,18.90
2018-06-09T04:46:09.729Z,20.13
2018-06-09T04:48:39.508Z,20.20
2018-06-09T04:51:09.554Z,19.10
2018-06-09T04:53:39.320Z,18.60
2018-06-09T04:56:09.092Z,18.23
2018-06-09T04:58:38.902Z,18.97
2018-06-09T05:01:08.389Z,18.10
2018-06-09T05:03:38.462Z,19.03
2018-06-09T05:06:08.258Z,19.30
2018-06-09T05:08:38.424Z,19.50
2018-06-09T05:11:08.012Z,20.57
2018-06-09T05:13:37.798Z,19.50
2018-06-09T05:16:07.618Z,18.53
2018-06-09T05:18:37.394Z,19.50
2018-06-09T05:21:07.163Z,18.37
2018-06-09T05:23:37.705Z,18.90
2018-06-09T05:26:07.473Z,20.27
2018-06-09T05:28:37.332Z,17.33
2018-06-09T05:31:07.131Z,17.57
2018-06-09T05:33:36.945Z,17.50
2018-06-09T05:36:07.040Z,16.70
2018-06-09T05:38:37.193Z,17.30
2018-06-09T05:41:06.989Z,15.87
2018-06-09T05:43:37.680Z,15.57
2018-06-09T05:46:07.440Z,16.97
2018-06-09T05:48:37.296Z,16.90
2018-06-09T05:51:07.075Z,18.40
2018-06-09T05:53:37.800Z,16.93
2018-06-09T05:56:07.583Z,16.63
2018-06-09T05:58:37.360Z,16.97
2018-06-09T06:01:07.135Z,18.10
2018-06-09T06:03:36.950Z,16.40
2018-06-09T06:06:22.463Z,17.90
2018-06-09T06:08:53.740Z,16.63
2018-06-09T06:11:23.534Z,16.13
2018-06-09T06:13:53.344Z,15.80
2018-06-09T06:16:23.174Z,17.50
2018-06-09T06:18:52.693Z,15.60
2018-06-09T06:21:22.226Z,16.00
2018-06-09T06:23:51.987Z,16.13
2018-06-09T06:26:21.789Z,15.67
2018-06-09T06:28:51.568Z,15.90
2018-06-09T06:31:21.417Z,14.40
2018-06-09T06:33:51.236Z,17.33
2018-06-09T06:36:22.114Z,16.87
2018-06-09T06:38:51.930Z,15.50
2018-06-09T06:41:21.737Z,16.00
2018-06-09T06:43:51.625Z,15.30
2018-06-09T06:46:21.510Z,15.67
2018-06-09T06:48:51.312Z,15.23
2018-06-09T06:51:20.815Z,15.10
2018-06-09T06:53:50.475Z,15.50
2018-06-09T06:56:20.249Z,15.33
2018-06-09T06:58:50.177Z,14.90
2018-06-09T07:01:20.747Z,15.33
2018-06-09T07:03:50.514Z,15.23
2018-06-09T07:06:20.940Z,16.00
2018-06-09T07:08:51.385Z,14.93
2018-06-09T07:11:21.178Z,15.63
2018-06-09T07:13:50.992Z,16.10
2018-06-09T07:16:21.519Z,16.10
2018-06-09T07:18:51.485Z,16.70
2018-06-09T07:21:20.956Z,17.17
2018-06-09T07:23:50.552Z,18.03
2018-06-09T07:26:21.065Z,17.97
2018-06-09T07:28:51.090Z,17.20
2018-06-09T07:31:20.874Z,15.87
2018-06-09T07:33:50.672Z,16.73
2018-06-09T07:36:21.049Z,16.07
2018-06-09T07:38:50.936Z,16.17
2018-06-09T07:41:20.812Z,16.90
2018-06-09T07:43:50.684Z,16.53
2018-06-09T07:46:20.485Z,15.73
2018-06-09T07:48:50.322Z,17.40
2018-06-09T07:51:20.117Z,14.90
2018-06-09T07:53:49.919Z,18.30
2018-06-09T07:56:20.355Z,17.30
2018-06-09T07:58:50.332Z,17.70
2018-06-09T08:01:20.076Z,16.80
2018-06-09T08:03:49.866Z,18.03
2018-06-09T08:06:19.653Z,18.70
2018-06-09T08:08:49.436Z,17.30
2018-06-09T08:11:18.992Z,18.60
2018-06-09T08:13:48.754Z,18.43
2018-06-09T08:16:18.318Z,29.30
2018-06-09T08:18:48.565Z,21.27
2018-06-09T08:21:18.405Z,17.00
2018-06-09T08:23:48.813Z,24.63
2018-06-09T08:26:18.603Z,18.90
2018-06-09T08:28:48.407Z,20.80
2018-06-09T08:31:18.211Z,28.93
2018-06-09T08:33:48.149Z,19.57
2018-06-09T08:36:17.989Z,19.50
2018-06-09T08:38:47.732Z,18.60
2018-06-09T08:41:17.548Z,18.47
2018-06-09T08:43:47.344Z,19.37
2018-06-09T08:46:17.142Z,19.13
2018-06-09T08:48:46.981Z,17.70
2018-06-09T08:51:16.783Z,17.03
2018-06-09T08:53:46.548Z,18.10
2018-06-09T08:56:17.037Z,18.07
2018-06-09T08:58:46.849Z,18.70
2018-06-09T09:01:16.661Z,17.67
2018-06-09T09:03:46.456Z,17.77
2018-06-09T09:06:16.991Z,17.80
2018-06-09T09:08:46.913Z,17.97
2018-06-09T09:11:16.782Z,18.87
2018-06-09T09:13:46.592Z,17.53
2018-06-09T09:16:16.400Z,22.33
2018-06-09T09:18:46.920Z,19.03
2018-06-09T09:21:16.706Z,17.37
2018-06-09T09:23:47.577Z,17.47
2018-06-09T09:26:17.434Z,17.30
2018-06-09T09:28:47.289Z,22.90
2018-06-09T09:31:18.084Z,19.10
2018-06-09T09:33:48.503Z,17.13
2018-06-09T09:36:18.306Z,17.97
2018-06-09T09:38:48.936Z,17.10
2018-06-09T09:41:18.809Z,20.30
2018-06-09T09:43:49.087Z,18.10
2018-06-09T09:46:19.080Z,16.07
2018-06-09T09:48:49.324Z,17.20
2018-06-09T09:51:20.165Z,17.97
2018-06-09T09:53:49.732Z,15.50
2018-06-09T09:56:19.546Z,18.63
2018-06-09T09:58:49.445Z,17.77
2018-06-09T10:01:19.288Z,16.90
2018-06-09T10:03:49.097Z,16.43
2018-06-09T10:06:19.649Z,16.63
2018-06-09T10:08:49.569Z,17.87
2018-06-09T10:11:19.367Z,16.53
2018-06-09T10:13:49.605Z,17.70
2018-06-09T10:16:19.383Z,16.63
2018-06-09T10:18:49.215Z,16.90
2018-06-09T10:21:19.049Z,18.30
2018-06-09T10:23:49.525Z,18.20
2018-06-09T10:26:19.327Z,16.27
2018-06-09T10:28:49.861Z,16.77
2018-06-09T10:31:19.733Z,16.60
2018-06-09T10:33:49.487Z,14.60
2018-06-09T10:36:19.601Z,19.93
2018-06-09T10:38:49.496Z,16.17
2018-06-09T10:41:19.361Z,18.10
2018-06-09T10:43:49.249Z,18.00
2018-06-09T10:46:19.097Z,16.70
2018-06-09T10:48:49.090Z,17.13
2018-06-09T10:51:19.597Z,19.20
2018-06-09T10:53:49.891Z,16.90
2018-06-09T10:56:19.793Z,16.70
2018-06-09T10:58:49.634Z,17.67
2018-06-09T11:01:20.007Z,17.83
2018-06-09T11:03:49.601Z,18.30
2018-06-09T11:06:19.425Z,18.50
2018-06-09T11:08:49.244Z,17.00
2018-06-09T11:11:19.968Z,18.40
2018-06-09T11:13:49.744Z,18.53
2018-06-09T11:16:20.055Z,16.70
2018-06-09T11:18:49.947Z,17.70
2018-06-09T11:21:19.739Z,17.60
2018-06-09T11:23:49.525Z,18.40
2018-06-09T11:26:19.364Z,16.70
2018-06-09T11:28:49.207Z,19.30
2018-06-09T11:31:19.005Z,19.13
2018-06-09T11:33:48.956Z,18.70
2018-06-09T11:36:18.768Z,20.80
2018-06-09T11:38:48.348Z,17.87
2018-06-09T11:41:17.949Z,17.70
2018-06-09T11:43:48.367Z,17.70
2018-06-09T11:46:18.193Z,17.50
2018-06-09T11:48:47.699Z,18.80
2018-06-09T11:51:17.314Z,18.77
2018-06-09T11:53:47.333Z,19.57
2018-06-09T11:56:16.929Z,18.03
2018-06-09T11:58:47.415Z,17.93
2018-06-09T12:01:17.250Z,19.50
2018-06-09T12:03:47.068Z,19.03
2018-06-09T12:06:16.955Z,17.97
2018-06-09T12:08:46.813Z,19.50
2018-06-09T12:11:16.610Z,17.60
2018-06-09T12:13:46.439Z,18.20
2018-06-09T12:16:16.265Z,16.50
2018-06-09T12:18:46.116Z,18.50
2018-06-09T12:21:17.040Z,16.52
2018-06-09T12:23:47.321Z,19.00
2018-06-09T12:26:17.758Z,20.60
2018-06-09T12:28:47.777Z,17.83
2018-06-09T12:31:18.493Z,19.33
2018-06-09T12:33:48.331Z,17.33
2018-06-09T12:36:18.327Z,20.90
2018-06-09T12:38:48.108Z,18.67
2018-06-09T12:41:21.258Z,18.40
2018-06-09T12:43:51.987Z,18.33
2018-06-09T12:46:21.801Z,21.00
2018-06-09T12:48:51.783Z,17.30
2018-06-09T12:51:21.606Z,20.23
2018-06-09T12:53:51.437Z,18.47
2018-06-09T12:56:21.323Z,17.60
2018-06-09T12:58:51.135Z,18.57
2018-06-09T13:01:21.017Z,18.13
2018-06-09T13:03:50.902Z,19.50
2018-06-09T13:06:21.173Z,16.53
2018-06-09T13:08:51.114Z,16.97
2018-06-09T13:11:22.090Z,17.07
2018-06-09T13:13:51.881Z,16.67
2018-06-09T13:16:21.706Z,20.17
2018-06-09T13:18:51.511Z,19.03
2018-06-09T13:21:21.591Z,16.87
2018-06-09T13:23:51.376Z,17.40
2018-06-09T13:26:21.185Z,17.37
2018-06-09T13:28:51.222Z,16.40
2018-06-09T13:31:21.482Z,14.00
2018-06-09T13:33:51.704Z,15.47
2018-06-09T13:36:21.572Z,15.07
2018-06-09T13:38:51.432Z,15.13
2018-06-09T13:41:21.203Z,14.17
2018-06-09T13:43:51.030Z,15.10
2018-06-09T13:46:21.605Z,14.87
2018-06-09T13:48:51.408Z,17.40
2018-06-09T13:51:21.343Z,18.07
2018-06-09T13:53:51.141Z,17.77
2018-06-09T13:56:20.969Z,16.80
2018-06-09T13:58:50.793Z,16.87
2018-06-09T14:01:20.760Z,16.50
2018-06-09T14:03:50.728Z,13.50
2018-06-09T14:06:20.584Z,17.10
2018-06-09T14:08:50.400Z,17.43
2018-06-09T14:11:20.692Z,19.37
2018-06-09T14:13:50.313Z,20.80
2018-06-09T14:16:20.130Z,18.07
2018-06-09T14:18:49.934Z,17.00
2018-06-09T14:21:19.989Z,16.00
2018-06-09T14:23:50.586Z,21.93
2018-06-09T14:26:20.390Z,18.20
2018-06-09T14:28:50.218Z,19.10
2018-06-09T14:31:20.038Z,19.13
2018-06-09T14:33:49.821Z,16.00
2018-06-09T14:36:20.656Z,18.47
2018-06-09T14:38:50.472Z,18.63
2018-06-09T14:41:20.344Z,19.73
2018-06-09T14:43:50.749Z,19.93
2018-06-09T14:46:20.980Z,19.70
2018-06-09T14:48:50.505Z,19.20
2018-06-09T14:51:20.428Z,19.87
2018-06-09T14:53:52.124Z,20.07
2018-06-09T14:56:21.885Z,20.30
2018-06-09T14:58:51.748Z,22.70
2018-06-09T15:01:22.645Z,19.03
2018-06-09T15:03:52.517Z,24.50
2018-06-09T15:06:22.327Z,21.40
2018-06-09T15:08:52.122Z,18.77
2018-06-09T15:11:21.943Z,17.87
2018-06-09T15:13:52.370Z,17.37
2018-06-09T15:16:23.032Z,20.80
2018-06-09T15:18:52.651Z,17.90
2018-06-09T15:21:22.469Z,19.40
2018-06-09T15:23:52.496Z,28.63
2018-06-09T15:26:22.303Z,23.70
2018-06-09T15:28:52.133Z,21.30
2018-06-09T15:31:21.954Z,22.27
2018-06-09T15:33:51.782Z,19.13
2018-06-09T15:36:24.790Z,19.57
2018-06-09T15:38:55.057Z,16.43
2018-06-09T15:41:24.848Z,17.77
2018-06-09T15:43:54.754Z,19.17
2018-06-09T15:46:24.573Z,19.47
2018-06-09T15:48:54.409Z,20.70
2018-06-09T15:51:24.205Z,19.10
2018-06-09T15:53:54.628Z,16.90
2018-06-09T15:56:24.524Z,17.60
2018-06-09T15:58:54.385Z,19.93
2018-06-09T16:01:24.254Z,19.63
2018-06-09T16:03:54.172Z,20.80
2018-06-09T16:06:23.965Z,20.40
2018-06-09T16:08:53.830Z,16.93
2018-06-09T16:11:23.614Z,17.60
2018-06-09T16:13:53.521Z,18.10
2018-06-09T16:16:23.392Z,18.37
2018-06-09T16:18:52.926Z,16.80
2018-06-09T16:21:22.740Z,14.90
2018-06-09T16:23:52.627Z,15.13
2018-06-09T16:26:22.961Z,16.17
2018-06-09T16:28:52.913Z,16.80
2018-06-09T16:31:22.571Z,15.00
2018-06-09T16:33:52.374Z,17.90
2018-06-09T16:36:22.181Z,16.90
2018-06-09T16:38:52.559Z,15.73
2018-06-09T16:41:22.520Z,16.00
2018-06-09T16:43:52.400Z,13.93
2018-06-09T16:46:22.308Z,15.47
2018-06-09T16:48:52.834Z,15.00
2018-06-09T16:51:22.643Z,15.97
2018-06-09T16:53:53.148Z,16.80
2018-06-09T16:56:22.904Z,16.27
2018-06-09T16:58:52.854Z,15.10
2018-06-09T17:01:22.696Z,16.20
2018-06-09T17:03:53.154Z,15.47
2018-06-09T17:06:24.120Z,15.47
2018-06-09T17:08:53.914Z,15.90
2018-06-09T17:11:23.761Z,15.93
2018-06-09T17:13:53.610Z,14.93
2018-06-09T17:16:23.956Z,13.10
2018-06-09T17:18:53.788Z,13.30
2018-06-09T17:21:23.572Z,12.40
2018-06-09T17:23:53.390Z,15.10
2018-06-09T17:26:23.177Z,13.50
2018-06-09T17:28:53.039Z,15.40
2018-06-09T17:31:22.969Z,12.30
2018-06-09T17:33:53.445Z,12.20
2018-06-09T17:36:23.128Z,12.73
2018-06-09T17:38:52.931Z,12.90
2018-06-09T17:41:23.385Z,12.37
2018-06-09T17:43:53.251Z,12.80
2018-06-09T17:46:23.617Z,12.37
2018-06-09T17:48:53.067Z,12.20
2018-06-09T17:51:23.232Z,12.07
2018-06-09T17:53:53.114Z,11.60
2018-06-09T17:56:23.582Z,12.33
2018-06-09T17:58:53.658Z,11.63
2018-06-09T18:01:23.282Z,13.13
2018-06-09T18:03:53.855Z,12.97
2018-06-09T18:06:23.758Z,15.20
2018-06-09T18:08:53.597Z,13.50
2018-06-09T18:11:23.560Z,14.47
2018-06-09T18:13:54.360Z,12.30
2018-06-09T18:16:24.204Z,12.20
2018-06-09T18:18:54.012Z,13.47
2018-06-09T18:21:23.837Z,13.37
2018-06-09T18:23:53.994Z,14.30
2018-06-09T18:26:24.411Z,14.27
2018-06-09T18:28:54.245Z,15.00
2018-06-09T18:31:24.156Z,16.70
2018-06-09T18:33:54.116Z,16.50
2018-06-09T18:36:25.196Z,16.20
2018-06-09T18:38:55.126Z,15.70
2018-06-09T18:41:24.970Z,16.50
2018-06-09T18:43:55.335Z,16.07
2018-06-09T18:46:25.218Z,19.30
2018-06-09T18:48:55.294Z,17.27
2018-06-09T18:51:24.924Z,17.50
2018-06-09T18:53:54.872Z,17.20
2018-06-09T18:56:24.369Z,17.47
2018-06-09T18:58:54.971Z,19.67
2018-06-09T19:01:25.859Z,20.77
2018-06-09T19:03:56.551Z,19.20
2018-06-09T19:06:26.603Z,21.67
2018-06-09T19:08:56.394Z,20.33
2018-06-09T19:11:26.240Z,20.60
2018-06-09T19:13:56.057Z,19.57
2018-06-09T19:16:25.923Z,20.90
2018-06-09T19:18:56.064Z,20.20
2018-06-09T19:21:25.957Z,21.00
2018-06-09T19:23:55.743Z,20.90
2018-06-09T19:26:25.665Z,21.90
2018-06-09T19:28:56.330Z,21.87
2018-06-09T19:31:26.240Z,24.70
2018-06-09T19:33:57.062Z,21.87
2018-06-09T19:36:26.906Z,23.27
2018-06-09T19:38:57.393Z,23.30
2018-06-09T19:41:27.358Z,19.50
2018-06-09T19:43:57.175Z,17.90
2018-06-09T19:46:27.041Z,14.97
2018-06-09T19:48:58.425Z,15.47
2018-06-09T19:51:28.342Z,12.60
2018-06-09T19:53:58.187Z,15.20
2018-06-09T19:56:34.673Z,15.07
2018-06-09T19:59:04.626Z,13.93
2018-06-09T20:01:34.483Z,12.13
2018-06-09T20:04:04.904Z,10.40
2018-06-09T20:06:34.866Z,10.53
2018-06-09T20:09:07.363Z,9.90
2018-06-09T20:11:37.250Z,9.63
2018-06-09T20:14:07.061Z,9.60
2018-06-09T20:16:36.995Z,9.77
2018-06-09T20:19:06.898Z,9.90
2018-06-09T20:21:36.757Z,10.20
2018-06-09T20:24:07.447Z,9.77
2018-06-09T20:26:38.324Z,9.80
2018-06-09T20:29:08.273Z,10.87
2018-06-09T20:31:38.093Z,11.30
2018-06-09T20:34:07.953Z,9.73
2018-06-09T20:36:37.851Z,9.97
2018-06-09T20:39:08.575Z,10.57
2018-06-09T20:41:38.502Z,10.43
2018-06-09T20:44:08.401Z,9.63
2018-06-09T20:46:38.309Z,9.43
2018-06-09T20:49:08.191Z,9.40
2018-06-09T20:51:38.103Z,11.13
2018-06-09T20:54:07.985Z,10.13
2018-06-09T20:56:37.845Z,10.10
2018-06-09T20:59:07.694Z,10.23
2018-06-09T21:01:37.649Z,9.80
2018-06-09T21:04:07.464Z,9.77
2018-06-09T21:06:39.093Z,10.03
2018-06-09T21:09:09.546Z,10.10
2018-06-09T21:11:40.114Z,9.63
2018-06-09T21:14:10.002Z,9.90
2018-06-09T21:16:40.131Z,9.80
2018-06-09T21:19:10.973Z,10.20
2018-06-09T21:21:40.768Z,9.77
2018-06-09T21:24:10.581Z,9.67
2018-06-09T21:26:45.710Z,9.97
2018-06-09T21:29:20.649Z,9.83
2018-06-09T21:31:50.449Z,10.40
2018-06-09T21:34:32.595Z,9.23
2018-06-09T21:37:07.745Z,9.67
2018-06-09T21:39:42.976Z,9.20
2018-06-09T21:42:18.179Z,9.73
2018-06-09T21:44:48.741Z,9.10
2018-06-09T21:47:19.150Z,10.47
2018-06-09T21:49:52.944Z,9.93
2018-06-09T21:52:22.801Z,9.03
2018-06-09T21:54:52.604Z,9.97
2018-06-09T21:57:22.405Z,10.67
2018-06-09T21:59:52.190Z,10.43
2018-06-09T22:02:22.137Z,10.13
2018-06-09T22:04:52.104Z,10.10
2018-06-09T22:07:21.902Z,10.43
2018-06-09T22:09:51.712Z,10.20
2018-06-09T22:12:22.333Z,9.40
2018-06-09T22:14:52.127Z,9.83
2018-06-09T22:17:21.949Z,9.60
2018-06-09T22:19:52.368Z,10.40
2018-06-09T22:22:25.401Z,10.47
2018-06-09T22:24:55.242Z,10.40
2018-06-09T22:27:25.187Z,10.57
2018-06-09T22:29:55.068Z,18.67
2018-06-09T22:32:24.953Z,15.90
2018-06-09T22:34:55.541Z,14.20
2018-06-09T22:37:25.416Z,14.17
2018-06-09T22:39:55.314Z,13.43
2018-06-09T22:42:25.337Z,13.37
2018-06-09T22:44:58.044Z,14.03
2018-06-09T22:47:27.931Z,14.53
2018-06-09T22:49:58.518Z,14.07
2018-06-09T22:52:28.309Z,14.10
2018-06-09T22:54:58.142Z,14.47
2018-06-09T22:57:27.953Z,13.93
2018-06-09T22:59:57.775Z,13.97
2018-06-09T23:02:27.590Z,14.50
2018-06-09T23:04:57.464Z,14.43
2018-06-09T23:07:26.975Z,15.80
2018-06-09T23:09:56.545Z,14.87
2018-06-09T23:12:26.355Z,14.77
2018-06-09T23:14:56.213Z,15.63
2018-06-09T23:17:26.028Z,14.00
2018-06-09T23:19:55.845Z,13.80
2018-06-09T23:22:25.689Z,15.20
2018-06-09T23:24:55.459Z,13.90
2018-06-09T23:27:26.237Z,13.60
2018-06-09T23:29:56.009Z,14.10
2018-06-09T23:32:26.322Z,15.07
2018-06-09T23:34:56.200Z,13.30
2018-06-09T23:37:26.097Z,13.73
2018-06-09T23:39:55.877Z,13.63
2018-06-09T23:42:25.356Z,13.17
2018-06-09T23:44:54.915Z,12.70
2018-06-09T23:47:24.965Z,14.10
2018-06-09T23:49:54.753Z,12.87
2018-06-09T23:52:24.514Z,12.40
2018-06-09T23:54:54.300Z,12.90
2018-06-09T23:57:24.662Z,13.33
2018-06-09T23:59:54.456Z,12.67
